sensor_id;sensor_type;location;lat;lon;timestamp;temperature;humidity
67275;DHT22;55463;52.324;5.122;2023-11-21T00:01:51;7.63;99.99
67275;DHT22;55463;52.324;5.122;2023-11-21T00:04:17;7.62;99.99
67275;DHT22;55463;52.324;5.122;2023-11-21T00:06:42;7.65;99.99
67275;DHT22;55463;52.324;5.122;2023-11-21T00:09:07;7.69;99.99
67275;DHT22;55463;52.324;5.122;2023-11-21T00:11:34;7.70;99.99
67275;DHT22;55463;52.324;5.122;2023-11-21T00:13:59;7.72;99.99
67275;DHT22;55463;52.324;5.122;2023-11-21T00:16:40;7.77;99.99
67275;DHT22;55463;52.324;5.122;2023-11-21T00:19:06;7.79;99.99
67275;DHT22;55463;52.324;5.122;2023-11-21T00:21:31;7.80;99.99
67275;DHT22;55463;52.324;5.122;2023-11-21T00:23:57;7.83;99.99
67275;DHT22;55463;52.324;5.122;2023-11-21T00:26:23;7.84;99.99
67275;DHT22;55463;52.324;5.122;2023-11-21T00:28:53;7.86;99.99
67275;DHT22;55463;52.324;5.122;2023-11-21T00:31:18;7.89;99.99
67275;DHT22;55463;52.324;5.122;2023-11-21T00:33:43;7.89;99.99
67275;DHT22;55463;52.324;5.122;2023-11-21T00:36:09;7.93;99.99
67275;DHT22;55463;52.324;5.122;2023-11-21T00:38:37;7.93;99.99
67275;DHT22;55463;52.324;5.122;2023-11-21T00:41:05;7.94;99.99
67275;DHT22;55463;52.324;5.122;2023-11-21T00:43:31;7.94;99.99
67275;DHT22;55463;52.324;5.122;2023-11-21T00:45:58;7.94;99.99
67275;DHT22;55463;52.324;5.122;2023-11-21T00:48:23;7.97;99.99
67275;DHT22;55463;52.324;5.122;2023-11-21T00:50:49;7.97;99.99
67275;DHT22;55463;52.324;5.122;2023-11-21T00:53:15;8.01;99.99
67275;DHT22;55463;52.324;5.122;2023-11-21T00:55:40;8.01;99.99
67275;DHT22;55463;52.324;5.122;2023-11-21T00:58:06;8.03;99.99
67275;DHT22;55463;52.324;5.122;2023-11-21T01:00:33;8.04;99.99
67275;DHT22;55463;52.324;5.122;2023-11-21T01:02:59;8.05;99.99
67275;DHT22;55463;52.324;5.122;2023-11-21T01:05:25;8.08;99.99
67275;DHT22;55463;52.324;5.122;2023-11-21T01:07:50;8.07;99.99
67275;DHT22;55463;52.324;5.122;2023-11-21T01:10:15;8.10;99.99
67275;DHT22;55463;52.324;5.122;2023-11-21T01:12:42;8.08;99.99
67275;DHT22;55463;52.324;5.122;2023-11-21T01:15:08;8.10;99.99
67275;DHT22;55463;52.324;5.122;2023-11-21T01:17:34;8.10;99.99
67275;DHT22;55463;52.324;5.122;2023-11-21T01:20:00;8.08;99.99
67275;DHT22;55463;52.324;5.122;2023-11-21T01:22:26;8.12;99.99
67275;DHT22;55463;52.324;5.122;2023-11-21T01:24:54;8.12;99.99
67275;DHT22;55463;52.324;5.122;2023-11-21T01:27:20;8.10;99.99
67275;DHT22;55463;52.324;5.122;2023-11-21T01:29:45;8.12;99.99
67275;DHT22;55463;52.324;5.122;2023-11-21T01:32:11;8.15;99.99
67275;DHT22;55463;52.324;5.122;2023-11-21T01:34:36;8.20;99.99
67275;DHT22;55463;52.324;5.122;2023-11-21T01:37:02;8.21;99.99
67275;DHT22;55463;52.324;5.122;2023-11-21T01:39:31;8.18;99.99
67275;DHT22;55463;52.324;5.122;2023-11-21T01:41:57;8.21;99.99
67275;DHT22;55463;52.324;5.122;2023-11-21T01:44:24;8.21;99.99
67275;DHT22;55463;52.324;5.122;2023-11-21T01:46:50;8.25;99.99
67275;DHT22;55463;52.324;5.122;2023-11-21T01:49:17;8.25;99.99
67275;DHT22;55463;52.324;5.122;2023-11-21T01:51:46;8.25;99.99
67275;DHT22;55463;52.324;5.122;2023-11-21T01:54:12;8.27;99.99
67275;DHT22;55463;52.324;5.122;2023-11-21T01:56:38;8.32;99.99
67275;DHT22;55463;52.324;5.122;2023-11-21T01:59:04;8.31;99.99
67275;DHT22;55463;52.324;5.122;2023-11-21T02:01:30;8.32;99.99
67275;DHT22;55463;52.324;5.122;2023-11-21T02:03:56;8.34;99.99
67275;DHT22;55463;52.324;5.122;2023-11-21T02:06:22;8.34;99.99
67275;DHT22;55463;52.324;5.122;2023-11-21T02:08:47;8.34;99.99
67275;DHT22;55463;52.324;5.122;2023-11-21T02:11:14;8.34;99.99
67275;DHT22;55463;52.324;5.122;2023-11-21T02:13:39;8.37;99.99
67275;DHT22;55463;52.324;5.122;2023-11-21T02:16:10;8.34;99.99
67275;DHT22;55463;52.324;5.122;2023-11-21T02:18:38;8.35;99.99
67275;DHT22;55463;52.324;5.122;2023-11-21T02:21:04;8.35;99.99
67275;DHT22;55463;52.324;5.122;2023-11-21T02:23:30;8.34;99.99
67275;DHT22;55463;52.324;5.122;2023-11-21T02:25:55;8.34;99.99
67275;DHT22;55463;52.324;5.122;2023-11-21T02:28:21;8.34;99.99
67275;DHT22;55463;52.324;5.122;2023-11-21T02:30:51;8.32;99.99
67275;DHT22;55463;52.324;5.122;2023-11-21T02:33:21;8.29;99.99
67275;DHT22;55463;52.324;5.122;2023-11-21T02:35:46;8.29;99.99
67275;DHT22;55463;52.324;5.122;2023-11-21T02:38:12;8.28;99.99
67275;DHT22;55463;52.324;5.122;2023-11-21T02:40:37;8.27;99.99
67275;DHT22;55463;52.324;5.122;2023-11-21T02:43:03;8.24;99.99
67275;DHT22;55463;52.324;5.122;2023-11-21T02:45:31;8.25;99.99
67275;DHT22;55463;52.324;5.122;2023-11-21T02:47:57;8.25;99.99
67275;DHT22;55463;52.324;5.122;2023-11-21T02:50:22;8.22;99.99
67275;DHT22;55463;52.324;5.122;2023-11-21T02:52:48;8.24;99.99
67275;DHT22;55463;52.324;5.122;2023-11-21T02:55:14;8.25;99.99
67275;DHT22;55463;52.324;5.122;2023-11-21T02:57:39;8.27;99.99
67275;DHT22;55463;52.324;5.122;2023-11-21T03:00:05;8.24;99.99
67275;DHT22;55463;52.324;5.122;2023-11-21T03:02:33;8.27;99.99
67275;DHT22;55463;52.324;5.122;2023-11-21T03:04:58;8.31;99.99
67275;DHT22;55463;52.324;5.122;2023-11-21T03:07:24;8.29;99.99
67275;DHT22;55463;52.324;5.122;2023-11-21T03:09:50;8.28;99.99
67275;DHT22;55463;52.324;5.122;2023-11-21T03:12:15;8.32;99.99
67275;DHT22;55463;52.324;5.122;2023-11-21T03:14:41;8.34;99.99
67275;DHT22;55463;52.324;5.122;2023-11-21T03:17:06;8.37;99.99
67275;DHT22;55463;52.324;5.122;2023-11-21T03:19:32;8.38;99.99
67275;DHT22;55463;52.324;5.122;2023-11-21T03:21:57;8.39;99.99
67275;DHT22;55463;52.324;5.122;2023-11-21T03:24:23;8.42;99.99
67275;DHT22;55463;52.324;5.122;2023-11-21T03:26:48;8.41;99.99
67275;DHT22;55463;52.324;5.122;2023-11-21T03:29:14;8.44;99.99
67275;DHT22;55463;52.324;5.122;2023-11-21T03:31:40;8.45;99.99
67275;DHT22;55463;52.324;5.122;2023-11-21T03:34:06;8.44;99.99
67275;DHT22;55463;52.324;5.122;2023-11-21T03:36:32;8.49;99.99
67275;DHT22;55463;52.324;5.122;2023-11-21T03:38:57;8.50;99.99
67275;DHT22;55463;52.324;5.122;2023-11-21T03:41:25;8.52;99.99
67275;DHT22;55463;52.324;5.122;2023-11-21T03:43:51;8.52;99.99
67275;DHT22;55463;52.324;5.122;2023-11-21T03:46:16;8.53;99.99
67275;DHT22;55463;52.324;5.122;2023-11-21T03:48:41;8.56;99.99
67275;DHT22;55463;52.324;5.122;2023-11-21T03:51:07;8.53;99.99
67275;DHT22;55463;52.324;5.122;2023-11-21T03:53:32;8.60;99.99
67275;DHT22;55463;52.324;5.122;2023-11-21T03:55:58;8.60;99.99
67275;DHT22;55463;52.324;5.122;2023-11-21T03:58:23;8.62;99.99
67275;DHT22;55463;52.324;5.122;2023-11-21T04:00:49;8.63;99.99
67275;DHT22;55463;52.324;5.122;2023-11-21T04:03:14;8.65;99.99
67275;DHT22;55463;52.324;5.122;2023-11-21T04:05:40;8.65;99.99
67275;DHT22;55463;52.324;5.122;2023-11-21T04:08:06;8.65;99.99
67275;DHT22;55463;52.324;5.122;2023-11-21T04:10:32;8.67;99.99
67275;DHT22;55463;52.324;5.122;2023-11-21T04:13:00;8.70;99.99
67275;DHT22;55463;52.324;5.122;2023-11-21T04:15:26;8.70;99.99
67275;DHT22;55463;52.324;5.122;2023-11-21T04:17:51;8.69;99.99
67275;DHT22;55463;52.324;5.122;2023-11-21T04:20:17;8.69;99.99
67275;DHT22;55463;52.324;5.122;2023-11-21T04:22:44;8.70;99.99
67275;DHT22;55463;52.324;5.122;2023-11-21T04:25:14;8.67;99.99
67275;DHT22;55463;52.324;5.122;2023-11-21T04:27:40;8.73;99.99
67275;DHT22;55463;52.324;5.122;2023-11-21T04:30:09;8.72;99.99
67275;DHT22;55463;52.324;5.122;2023-11-21T04:32:35;8.75;99.99
67275;DHT22;55463;52.324;5.122;2023-11-21T04:35:00;8.76;99.99
67275;DHT22;55463;52.324;5.122;2023-11-21T04:37:26;8.77;99.99
67275;DHT22;55463;52.324;5.122;2023-11-21T04:39:51;8.77;99.99
67275;DHT22;55463;52.324;5.122;2023-11-21T04:42:17;8.80;99.99
67275;DHT22;55463;52.324;5.122;2023-11-21T04:44:42;8.83;99.99
67275;DHT22;55463;52.324;5.122;2023-11-21T04:47:11;8.83;99.99
67275;DHT22;55463;52.324;5.122;2023-11-21T04:49:37;8.87;99.99
67275;DHT22;55463;52.324;5.122;2023-11-21T04:52:03;8.88;99.99
67275;DHT22;55463;52.324;5.122;2023-11-21T04:54:30;8.88;99.99
67275;DHT22;55463;52.324;5.122;2023-11-21T04:56:56;8.87;99.99
67275;DHT22;55463;52.324;5.122;2023-11-21T04:59:21;8.90;99.99
67275;DHT22;55463;52.324;5.122;2023-11-21T05:01:50;8.88;99.99
67275;DHT22;55463;52.324;5.122;2023-11-21T05:04:15;8.91;99.99
67275;DHT22;55463;52.324;5.122;2023-11-21T05:06:40;8.91;99.99
67275;DHT22;55463;52.324;5.122;2023-11-21T05:09:06;9.00;99.99
67275;DHT22;55463;52.324;5.122;2023-11-21T05:11:36;9.05;99.99
67275;DHT22;55463;52.324;5.122;2023-11-21T05:14:02;9.10;99.99
67275;DHT22;55463;52.324;5.122;2023-11-21T05:16:29;9.15;99.99
67275;DHT22;55463;52.324;5.122;2023-11-21T05:18:54;9.21;99.99
67275;DHT22;55463;52.324;5.122;2023-11-21T05:21:25;9.27;99.99
67275;DHT22;55463;52.324;5.122;2023-11-21T05:23:51;9.35;99.99
67275;DHT22;55463;52.324;5.122;2023-11-21T05:26:16;9.38;99.99
67275;DHT22;55463;52.324;5.122;2023-11-21T05:28:42;9.39;99.99
67275;DHT22;55463;52.324;5.122;2023-11-21T05:31:07;9.43;99.99
67275;DHT22;55463;52.324;5.122;2023-11-21T05:33:32;9.45;99.99
67275;DHT22;55463;52.324;5.122;2023-11-21T05:35:58;9.48;99.99
67275;DHT22;55463;52.324;5.122;2023-11-21T05:38:23;9.46;99.99
67275;DHT22;55463;52.324;5.122;2023-11-21T05:40:49;9.48;99.99
67275;DHT22;55463;52.324;5.122;2023-11-21T05:43:15;9.50;99.99
67275;DHT22;55463;52.324;5.122;2023-11-21T05:45:40;9.53;99.99
67275;DHT22;55463;52.324;5.122;2023-11-21T05:48:06;9.57;99.99
67275;DHT22;55463;52.324;5.122;2023-11-21T05:50:31;9.59;99.99
67275;DHT22;55463;52.324;5.122;2023-11-21T05:52:57;9.62;99.99
67275;DHT22;55463;52.324;5.122;2023-11-21T05:55:25;9.63;99.99
67275;DHT22;55463;52.324;5.122;2023-11-21T05:57:51;9.66;99.99
67275;DHT22;55463;52.324;5.122;2023-11-21T06:00:16;9.66;99.99
67275;DHT22;55463;52.324;5.122;2023-11-21T06:02:54;9.69;99.99
67275;DHT22;55463;52.324;5.122;2023-11-21T06:05:22;9.70;99.99
67275;DHT22;55463;52.324;5.122;2023-11-21T06:07:49;9.72;99.99
67275;DHT22;55463;52.324;5.122;2023-11-21T06:10:14;9.73;99.99
67275;DHT22;55463;52.324;5.122;2023-11-21T06:12:40;9.74;99.99
67275;DHT22;55463;52.324;5.122;2023-11-21T06:15:08;9.73;99.99
67275;DHT22;55463;52.324;5.122;2023-11-21T06:17:37;9.73;99.99
67275;DHT22;55463;52.324;5.122;2023-11-21T06:20:07;9.72;99.99
67275;DHT22;55463;52.324;5.122;2023-11-21T06:22:40;9.72;99.99
67275;DHT22;55463;52.324;5.122;2023-11-21T06:25:06;9.74;99.99
67275;DHT22;55463;52.324;5.122;2023-11-21T06:27:33;9.76;99.99
67275;DHT22;55463;52.324;5.122;2023-11-21T06:29:59;9.77;99.99
67275;DHT22;55463;52.324;5.122;2023-11-21T06:32:24;9.79;99.99
67275;DHT22;55463;52.324;5.122;2023-11-21T06:34:51;9.77;99.99
67275;DHT22;55463;52.324;5.122;2023-11-21T06:37:19;9.79;99.99
67275;DHT22;55463;52.324;5.122;2023-11-21T06:39:48;9.80;99.99
67275;DHT22;55463;52.324;5.122;2023-11-21T06:42:13;9.79;99.99
67275;DHT22;55463;52.324;5.122;2023-11-21T06:44:40;9.83;99.99
67275;DHT22;55463;52.324;5.122;2023-11-21T06:47:09;9.82;99.99
67275;DHT22;55463;52.324;5.122;2023-11-21T06:49:34;9.82;99.99
67275;DHT22;55463;52.324;5.122;2023-11-21T06:52:00;9.82;99.99
67275;DHT22;55463;52.324;5.122;2023-11-21T06:54:27;9.84;99.99
67275;DHT22;55463;52.324;5.122;2023-11-21T06:56:53;9.86;99.99
67275;DHT22;55463;52.324;5.122;2023-11-21T06:59:18;9.89;99.99
67275;DHT22;55463;52.324;5.122;2023-11-21T07:01:44;9.86;99.99
67275;DHT22;55463;52.324;5.122;2023-11-21T07:04:09;9.87;99.99
67275;DHT22;55463;52.324;5.122;2023-11-21T07:06:35;9.87;99.99
67275;DHT22;55463;52.324;5.122;2023-11-21T07:09:00;9.89;99.99
67275;DHT22;55463;52.324;5.122;2023-11-21T07:11:27;9.86;99.99
67275;DHT22;55463;52.324;5.122;2023-11-21T07:13:52;9.87;99.99
67275;DHT22;55463;52.324;5.122;2023-11-21T07:16:18;9.86;99.99
67275;DHT22;55463;52.324;5.122;2023-11-21T07:18:44;9.89;99.99
67275;DHT22;55463;52.324;5.122;2023-11-21T07:21:10;9.90;99.99
67275;DHT22;55463;52.324;5.122;2023-11-21T07:23:37;9.90;99.99
67275;DHT22;55463;52.324;5.122;2023-11-21T07:26:02;9.91;99.99
67275;DHT22;55463;52.324;5.122;2023-11-21T07:28:29;9.91;99.99
67275;DHT22;55463;52.324;5.122;2023-11-21T07:30:55;9.93;99.99
67275;DHT22;55463;52.324;5.122;2023-11-21T07:33:20;9.93;99.99
67275;DHT22;55463;52.324;5.122;2023-11-21T07:35:46;9.91;99.99
67275;DHT22;55463;52.324;5.122;2023-11-21T07:38:12;9.91;99.99
67275;DHT22;55463;52.324;5.122;2023-11-21T07:40:38;9.93;99.99
67275;DHT22;55463;52.324;5.122;2023-11-21T07:43:03;9.91;99.99
67275;DHT22;55463;52.324;5.122;2023-11-21T07:45:30;9.93;99.99
67275;DHT22;55463;52.324;5.122;2023-11-21T07:47:55;9.87;99.99
67275;DHT22;55463;52.324;5.122;2023-11-21T07:50:22;9.90;99.99
67275;DHT22;55463;52.324;5.122;2023-11-21T07:52:48;9.89;99.99
67275;DHT22;55463;52.324;5.122;2023-11-21T07:55:14;9.93;99.99
67275;DHT22;55463;52.324;5.122;2023-11-21T07:57:40;9.89;99.99
67275;DHT22;55463;52.324;5.122;2023-11-21T08:00:06;9.87;99.99
67275;DHT22;55463;52.324;5.122;2023-11-21T08:02:34;9.90;99.99
67275;DHT22;55463;52.324;5.122;2023-11-21T08:05:00;9.95;99.99
67275;DHT22;55463;52.324;5.122;2023-11-21T08:07:25;9.97;99.99
67275;DHT22;55463;52.324;5.122;2023-11-21T08:09:51;9.98;99.99
67275;DHT22;55463;52.324;5.122;2023-11-21T08:12:17;10.01;99.99
67275;DHT22;55463;52.324;5.122;2023-11-21T08:14:43;10.07;99.99
67275;DHT22;55463;52.324;5.122;2023-11-21T08:17:09;10.07;99.99
67275;DHT22;55463;52.324;5.122;2023-11-21T08:19:36;10.11;99.99
67275;DHT22;55463;52.324;5.122;2023-11-21T08:22:03;10.08;99.99
67275;DHT22;55463;52.324;5.122;2023-11-21T08:24:28;10.08;99.99
67275;DHT22;55463;52.324;5.122;2023-11-21T08:26:54;10.08;99.99
67275;DHT22;55463;52.324;5.122;2023-11-21T08:29:19;10.08;99.99
67275;DHT22;55463;52.324;5.122;2023-11-21T08:31:45;10.07;99.99
67275;DHT22;55463;52.324;5.122;2023-11-21T08:34:12;10.10;99.99
67275;DHT22;55463;52.324;5.122;2023-11-21T08:36:44;10.14;99.99
67275;DHT22;55463;52.324;5.122;2023-11-21T08:39:10;10.11;99.99
67275;DHT22;55463;52.324;5.122;2023-11-21T08:41:36;10.15;99.99
67275;DHT22;55463;52.324;5.122;2023-11-21T08:44:02;10.17;99.99
67275;DHT22;55463;52.324;5.122;2023-11-21T08:46:32;10.14;99.99
67275;DHT22;55463;52.324;5.122;2023-11-21T08:48:59;10.14;99.99
67275;DHT22;55463;52.324;5.122;2023-11-21T08:51:24;10.15;99.99
67275;DHT22;55463;52.324;5.122;2023-11-21T08:53:50;10.11;99.99
67275;DHT22;55463;52.324;5.122;2023-11-21T08:56:16;10.07;99.99
67275;DHT22;55463;52.324;5.122;2023-11-21T08:58:43;10.07;99.99
67275;DHT22;55463;52.324;5.122;2023-11-21T09:01:09;10.05;99.99
67275;DHT22;55463;52.324;5.122;2023-11-21T09:03:34;10.07;99.99
67275;DHT22;55463;52.324;5.122;2023-11-21T09:06:00;10.02;99.99
67275;DHT22;55463;52.324;5.122;2023-11-21T09:08:26;10.02;99.99
67275;DHT22;55463;52.324;5.122;2023-11-21T09:10:53;10.02;99.99
67275;DHT22;55463;52.324;5.122;2023-11-21T09:13:18;10.00;99.99
67275;DHT22;55463;52.324;5.122;2023-11-21T09:15:47;10.01;99.99
67275;DHT22;55463;52.324;5.122;2023-11-21T09:18:14;10.01;99.99
67275;DHT22;55463;52.324;5.122;2023-11-21T09:20:41;10.02;99.99
67275;DHT22;55463;52.324;5.122;2023-11-21T09:23:08;10.04;99.99
67275;DHT22;55463;52.324;5.122;2023-11-21T09:25:33;10.05;99.99
67275;DHT22;55463;52.324;5.122;2023-11-21T09:27:58;10.05;99.99
67275;DHT22;55463;52.324;5.122;2023-11-21T09:30:25;10.05;99.99
67275;DHT22;55463;52.324;5.122;2023-11-21T09:32:51;10.11;99.99
67275;DHT22;55463;52.324;5.122;2023-11-21T09:35:16;10.10;99.99
67275;DHT22;55463;52.324;5.122;2023-11-21T09:37:45;10.11;99.99
67275;DHT22;55463;52.324;5.122;2023-11-21T09:40:11;10.11;99.99
67275;DHT22;55463;52.324;5.122;2023-11-21T09:42:54;10.10;99.99
67275;DHT22;55463;52.324;5.122;2023-11-21T09:45:25;10.11;99.99
67275;DHT22;55463;52.324;5.122;2023-11-21T09:47:52;10.10;99.99
67275;DHT22;55463;52.324;5.122;2023-11-21T09:50:19;10.12;99.99
67275;DHT22;55463;52.324;5.122;2023-11-21T09:55:17;10.07;99.99
67275;DHT22;55463;52.324;5.122;2023-11-21T09:57:44;10.07;99.99
67275;DHT22;55463;52.324;5.122;2023-11-21T10:00:11;10.07;99.99
67275;DHT22;55463;52.324;5.122;2023-11-21T10:02:38;10.04;99.99
67275;DHT22;55463;52.324;5.122;2023-11-21T10:05:06;10.02;99.99
67275;DHT22;55463;52.324;5.122;2023-11-21T10:07:33;10.07;99.99
67275;DHT22;55463;52.324;5.122;2023-11-21T10:10:00;10.07;99.99
67275;DHT22;55463;52.324;5.122;2023-11-21T10:12:28;10.08;99.99
67275;DHT22;55463;52.324;5.122;2023-11-21T10:14:54;10.10;99.99
67275;DHT22;55463;52.324;5.122;2023-11-21T10:17:23;10.07;99.99
67275;DHT22;55463;52.324;5.122;2023-11-21T10:19:51;10.08;99.99
67275;DHT22;55463;52.324;5.122;2023-11-21T10:22:19;10.10;99.99
67275;DHT22;55463;52.324;5.122;2023-11-21T10:24:45;10.10;99.99
67275;DHT22;55463;52.324;5.122;2023-11-21T10:27:11;10.05;99.99
67275;DHT22;55463;52.324;5.122;2023-11-21T10:29:39;10.05;99.99
67275;DHT22;55463;52.324;5.122;2023-11-21T10:32:04;10.07;99.99
67275;DHT22;55463;52.324;5.122;2023-11-21T10:34:31;10.04;99.99
67275;DHT22;55463;52.324;5.122;2023-11-21T10:36:56;10.04;99.99
67275;DHT22;55463;52.324;5.122;2023-11-21T10:39:24;10.07;99.99
67275;DHT22;55463;52.324;5.122;2023-11-21T10:41:53;10.15;99.99
67275;DHT22;55463;52.324;5.122;2023-11-21T10:44:18;10.18;99.99
67275;DHT22;55463;52.324;5.122;2023-11-21T10:46:50;10.21;99.99
67275;DHT22;55463;52.324;5.122;2023-11-21T10:49:24;10.24;99.99
67275;DHT22;55463;52.324;5.122;2023-11-21T10:51:51;10.25;99.99
67275;DHT22;55463;52.324;5.122;2023-11-21T10:54:22;10.22;99.99
67275;DHT22;55463;52.324;5.122;2023-11-21T10:56:56;10.15;99.99
67275;DHT22;55463;52.324;5.122;2023-11-21T10:59:22;10.14;99.99
67275;DHT22;55463;52.324;5.122;2023-11-21T11:01:50;10.11;99.99
67275;DHT22;55463;52.324;5.122;2023-11-21T11:04:19;10.11;99.99
67275;DHT22;55463;52.324;5.122;2023-11-21T11:06:45;10.12;99.99
67275;DHT22;55463;52.324;5.122;2023-11-21T11:09:17;10.11;99.99
67275;DHT22;55463;52.324;5.122;2023-11-21T11:11:43;10.02;99.99
67275;DHT22;55463;52.324;5.122;2023-11-21T11:14:12;10.00;99.99
67275;DHT22;55463;52.324;5.122;2023-11-21T11:16:38;10.01;99.99
67275;DHT22;55463;52.324;5.122;2023-11-21T11:19:10;10.00;99.99
67275;DHT22;55463;52.324;5.122;2023-11-21T11:30:27;9.82;99.99
67275;DHT22;55463;52.324;5.122;2023-11-21T11:33:14;9.82;99.99
67275;DHT22;55463;52.324;5.122;2023-11-21T11:39:02;9.77;99.99
67275;DHT22;55463;52.324;5.122;2023-11-21T11:41:31;9.83;99.99
67275;DHT22;55463;52.324;5.122;2023-11-21T11:44:00;9.84;99.99
67275;DHT22;55463;52.324;5.122;2023-11-21T11:46:42;9.74;99.99
67275;DHT22;55463;52.324;5.122;2023-11-21T11:49:08;9.70;99.99
67275;DHT22;55463;52.324;5.122;2023-11-21T11:51:34;9.73;99.99
67275;DHT22;55463;52.324;5.122;2023-11-21T11:54:01;9.76;99.99
67275;DHT22;55463;52.324;5.122;2023-11-21T11:56:30;9.76;99.99
67275;DHT22;55463;52.324;5.122;2023-11-21T11:59:00;9.73;99.99
67275;DHT22;55463;52.324;5.122;2023-11-21T12:01:28;9.73;99.99
67275;DHT22;55463;52.324;5.122;2023-11-21T12:06:48;9.72;99.99
67275;DHT22;55463;52.324;5.122;2023-11-21T12:09:20;9.67;99.99
67275;DHT22;55463;52.324;5.122;2023-11-21T12:11:48;9.70;99.99
67275;DHT22;55463;52.324;5.122;2023-11-21T12:14:14;9.65;99.99
67275;DHT22;55463;52.324;5.122;2023-11-21T12:16:40;9.62;99.99
67275;DHT22;55463;52.324;5.122;2023-11-21T12:19:05;9.63;99.99
67275;DHT22;55463;52.324;5.122;2023-11-21T12:21:31;9.63;99.99
67275;DHT22;55463;52.324;5.122;2023-11-21T12:23:58;9.66;99.99
67275;DHT22;55463;52.324;5.122;2023-11-21T12:26:26;9.65;99.99
67275;DHT22;55463;52.324;5.122;2023-11-21T12:28:55;9.66;99.99
67275;DHT22;55463;52.324;5.122;2023-11-21T12:31:23;9.63;99.99
67275;DHT22;55463;52.324;5.122;2023-11-21T12:33:49;9.65;99.99
67275;DHT22;55463;52.324;5.122;2023-11-21T12:36:15;9.63;99.99
67275;DHT22;55463;52.324;5.122;2023-11-21T12:38:41;9.60;99.99
67275;DHT22;55463;52.324;5.122;2023-11-21T12:41:07;9.63;99.99
67275;DHT22;55463;52.324;5.122;2023-11-21T12:43:33;9.66;99.99
67275;DHT22;55463;52.324;5.122;2023-11-21T12:46:13;9.65;99.99
67275;DHT22;55463;52.324;5.122;2023-11-21T12:48:45;9.69;99.99
67275;DHT22;55463;52.324;5.122;2023-11-21T12:51:12;9.63;99.99
67275;DHT22;55463;52.324;5.122;2023-11-21T12:53:39;9.67;99.99
67275;DHT22;55463;52.324;5.122;2023-11-21T12:56:12;9.67;99.99
67275;DHT22;55463;52.324;5.122;2023-11-21T12:58:38;9.70;99.99
67275;DHT22;55463;52.324;5.122;2023-11-21T13:01:07;9.69;99.99
67275;DHT22;55463;52.324;5.122;2023-11-21T13:03:43;9.67;99.99
67275;DHT22;55463;52.324;5.122;2023-11-21T13:06:14;9.66;99.99
67275;DHT22;55463;52.324;5.122;2023-11-21T13:08:39;9.63;99.99
67275;DHT22;55463;52.324;5.122;2023-11-21T13:11:05;9.65;99.99
67275;DHT22;55463;52.324;5.122;2023-11-21T13:13:31;9.65;99.99
67275;DHT22;55463;52.324;5.122;2023-11-21T13:15:59;9.67;99.99
67275;DHT22;55463;52.324;5.122;2023-11-21T13:18:31;9.66;99.99
67275;DHT22;55463;52.324;5.122;2023-11-21T13:20:58;9.62;99.99
67275;DHT22;55463;52.324;5.122;2023-11-21T13:23:24;9.60;99.99
67275;DHT22;55463;52.324;5.122;2023-11-21T13:25:51;9.62;99.99
67275;DHT22;55463;52.324;5.122;2023-11-21T13:28:17;9.59;99.99
67275;DHT22;55463;52.324;5.122;2023-11-21T13:30:48;9.59;99.99
67275;DHT22;55463;52.324;5.122;2023-11-21T13:33:17;9.59;99.99
67275;DHT22;55463;52.324;5.122;2023-11-21T13:35:46;9.60;99.99
67275;DHT22;55463;52.324;5.122;2023-11-21T13:38:17;9.59;99.99
67275;DHT22;55463;52.324;5.122;2023-11-21T13:40:47;9.59;99.99
67275;DHT22;55463;52.324;5.122;2023-11-21T13:43:15;9.57;99.99
67275;DHT22;55463;52.324;5.122;2023-11-21T13:45:43;9.57;99.99
67275;DHT22;55463;52.324;5.122;2023-11-21T13:48:10;9.60;99.99
67275;DHT22;55463;52.324;5.122;2023-11-21T13:50:45;9.59;99.85
67275;DHT22;55463;52.324;5.122;2023-11-21T13:53:24;9.59;99.68
67275;DHT22;55463;52.324;5.122;2023-11-21T13:55:54;9.57;99.72
67275;DHT22;55463;52.324;5.122;2023-11-21T13:58:20;9.59;99.54
67275;DHT22;55463;52.324;5.122;2023-11-21T14:00:50;9.57;99.23
67275;DHT22;55463;52.324;5.122;2023-11-21T14:03:24;9.55;99.03
67275;DHT22;55463;52.324;5.122;2023-11-21T14:05:58;9.55;98.99
67275;DHT22;55463;52.324;5.122;2023-11-21T14:08:26;9.50;98.91
67275;DHT22;55463;52.324;5.122;2023-11-21T14:10:57;9.43;98.68
67275;DHT22;55463;52.324;5.122;2023-11-21T14:13:26;9.42;98.53
67275;DHT22;55463;52.324;5.122;2023-11-21T14:15:53;9.39;98.70
67275;DHT22;55463;52.324;5.122;2023-11-21T14:18:27;9.36;98.60
67275;DHT22;55463;52.324;5.122;2023-11-21T14:20:59;9.36;98.55
67275;DHT22;55463;52.324;5.122;2023-11-21T14:23:25;9.32;98.52
67275;DHT22;55463;52.324;5.122;2023-11-21T14:25:50;9.32;98.61
67275;DHT22;55463;52.324;5.122;2023-11-21T14:28:17;9.31;98.49
67275;DHT22;55463;52.324;5.122;2023-11-21T14:30:42;9.27;98.51
67275;DHT22;55463;52.324;5.122;2023-11-21T14:33:08;9.31;98.73
67275;DHT22;55463;52.324;5.122;2023-11-21T14:35:36;9.28;98.43
67275;DHT22;55463;52.324;5.122;2023-11-21T14:38:02;9.28;98.18
67275;DHT22;55463;52.324;5.122;2023-11-21T14:40:32;9.31;98.22
67275;DHT22;55463;52.324;5.122;2023-11-21T14:43:00;9.28;98.38
67275;DHT22;55463;52.324;5.122;2023-11-21T14:45:26;9.25;98.31
67275;DHT22;55463;52.324;5.122;2023-11-21T14:47:52;9.24;98.18
67275;DHT22;55463;52.324;5.122;2023-11-21T14:50:44;9.24;97.84
67275;DHT22;55463;52.324;5.122;2023-11-21T14:53:29;9.21;97.53
67275;DHT22;55463;52.324;5.122;2023-11-21T14:56:09;9.20;97.81
67275;DHT22;55463;52.324;5.122;2023-11-21T14:58:34;9.22;97.59
67275;DHT22;55463;52.324;5.122;2023-11-21T15:01:02;9.21;97.86
67275;DHT22;55463;52.324;5.122;2023-11-21T15:03:29;9.18;98.12
67275;DHT22;55463;52.324;5.122;2023-11-21T15:06:01;9.18;98.08
67275;DHT22;55463;52.324;5.122;2023-11-21T15:08:44;9.15;97.87
67275;DHT22;55463;52.324;5.122;2023-11-21T15:11:10;9.14;97.93
67275;DHT22;55463;52.324;5.122;2023-11-21T15:13:40;9.11;98.13
67275;DHT22;55463;52.324;5.122;2023-11-21T15:16:07;9.08;97.92
67275;DHT22;55463;52.324;5.122;2023-11-21T15:18:33;9.08;98.31
67275;DHT22;55463;52.324;5.122;2023-11-21T15:21:00;9.04;98.02
67275;DHT22;55463;52.324;5.122;2023-11-21T15:23:26;9.03;97.93
67275;DHT22;55463;52.324;5.122;2023-11-21T15:25:53;9.00;97.98
67275;DHT22;55463;52.324;5.122;2023-11-21T15:28:18;8.94;97.95
67275;DHT22;55463;52.324;5.122;2023-11-21T15:30:44;8.93;98.21
67275;DHT22;55463;52.324;5.122;2023-11-21T15:33:13;8.88;97.95
67275;DHT22;55463;52.324;5.122;2023-11-21T15:35:38;8.79;97.94
67275;DHT22;55463;52.324;5.122;2023-11-21T15:38:06;8.79;97.96
67275;DHT22;55463;52.324;5.122;2023-11-21T15:40:33;8.77;98.06
67275;DHT22;55463;52.324;5.122;2023-11-21T15:42:58;8.77;98.25
67275;DHT22;55463;52.324;5.122;2023-11-21T15:45:25;8.73;98.16
67275;DHT22;55463;52.324;5.122;2023-11-21T15:47:51;8.70;97.95
67275;DHT22;55463;52.324;5.122;2023-11-21T15:50:18;8.65;97.69
67275;DHT22;55463;52.324;5.122;2023-11-21T15:52:43;8.59;97.54
67275;DHT22;55463;52.324;5.122;2023-11-21T15:55:09;8.55;97.30
67275;DHT22;55463;52.324;5.122;2023-11-21T15:57:34;8.55;97.41
67275;DHT22;55463;52.324;5.122;2023-11-21T16:00:00;8.52;97.42